AirNav   Everest Fuels
 
 1276 users online  

8FD3 Blackwater Airfield
Munson, Florida, USA

GOING TO MUNSON?


FAA INFORMATION EFFECTIVE 10 OCTOBER 2019

Location

FAA Identifier: 8FD3
Lat/Long: 30-52-39.6660N 086-51-15.8560W
30-52.661100N 086-51.264267W
30.8776850,-86.8544044
(estimated)
Elevation: 200 ft. / 61 m (estimated)
Variation: 01E (1985)
From city: 1 mile NE of MUNSON, FL
Time zone: UTC -5 (UTC -6 during Standard Time)
Zip code: 32570

Airport Operations

Airport use: Private use. Permission required prior to landing
Activation date: 03/1988
Control tower: no
ARTCC: JACKSONVILLE CENTER
FSS: GAINESVILLE FLIGHT SERVICE STATION
Attendance: CONTINUOUS
Wind indicator: yes
Segmented circle: no

Airport Communications

WX ASOS at NSE (13 nm SW): PHONE 850-623-7241
WX ASOS at NDZ (14 nm SW): PHONE 850-623-7210
WX AWOS-3PT at 12J (15 nm NW): 119.325 (251-809-2987)
WX ASOS at CEW (18 nm E): 119.275 (850-682-1237)

Nearby radio navigation aids

VOR radial/distance  VOR name  Freq  Var
CEWr286/9.5CRESTVIEW VORTAC115.9003E
NUNr045/(34.8)SAUFLEY VOR108.8001E

 
NDB name  Hdg/Dist  Freq  Var  ID
PICKENS034/31.332602WPKZ .--. -.- --..
JUDD225/35.026402WJUY .--- ..- -.--

Airport Services

Runway Information

Runway 18/36

Dimensions: 4000 x 100 ft. / 1219 x 30 m
Surface: turf
RUNWAY 18  RUNWAY 36
Traffic pattern: leftleft
Displaced threshold: no1500 ft.

Airport Ownership and Management from official FAA records

Ownership: Publicly-owned
Owner: DEPT OF AGRI/DIV OF FORESTRY
3266 CAPITAL CIR S W
TALLAHASSEE, FL 32310
Phone (850) 681-5980
Manager: BRIAN MCKEE
3266 CAPITAL CIR SW
TALLAHASSEE, FL 32310
Phone (850) 681-5980

Airport Operational Statistics

Aircraft based on the field: 1
Single engine airplanes: 1
    

Additional Remarks

FOR CD CTC PENSACOLA APCH AT 850-266-6884 OR 850-266-6885.

Instrument Procedures

There are no published instrument procedures at 8FD3.

Some nearby airports with instrument procedures:

KNSE - Whiting Field Naval Air Station North (13 nm SW)
KNDZ - Whiting Field Naval Air Station South (14 nm SW)
12J - Brewton Municipal Airport (15 nm NW)
2R4 - Peter Prince Field Airport (16 nm SW)
KCEW - Bob Sikes Airport (18 nm E)
 
Loc | Ops | Rwys | IFR | FBO | Links
Com | Nav | Svcs | Stats | Notes
Area around 8FD3 (Blackwater Airfield)
 
Road maps at: MapQuest Bing Google
 
Aerial photo
WARNING: Photo may not be current or correct
Aerial photo of 8FD3 (Blackwater Airfield)
Photo by Drew Hatch
Photo taken 16-Mar-2013
looking north.

Do you have a better or more recent aerial photo of Blackwater Airfield that you would like to share? If so, please send us your photo.

 
Sectional chart

 
Airport distance calculator
Flying to Blackwater Airfield? Find the distance to fly.

From to 8FD3

Sunrise and sunset
Times for 16-Oct-2019
 Local
(UTC-5)
 Zulu
(UTC)
Morning civil twilight06:2711:27
Sunrise06:5211:52
Sunset18:1423:14
Evening civil twilight18:3923:39

Current date and time
Zulu (UTC)  16-Oct-2019 21:21:53
Local (UTC-5)  16-Oct-2019 16:21:53
 
METAR
KNSE 
13nm SW 
162056Z 35009G14KT 320V040 10SM SCT022 BKN120 BKN250 25/19 A2988 RMK AO2 SLP104 T02500194 57016 $
KNDZ 
14nm SW 
162056Z 35013KT 9SM SCT022 BKN130 BKN250 26/20 A2988 RMK AO2 SLP104 T02560200 56017 $
KCEW 
19nm E 
162053Z AUTO 01008KT 10SM BKN025 OVC030 26/20 A2990 RMK AO2 SLP120 60000 T02560200 56019
KEGI 
23nm SE 
162056Z AUTO 35010KT 10SM SCT024 BKN200 25/20 A2988 RMK AO2 SLP118 T02490197 56015 $
TAF
KNSE 
13nm SW 
1617/1715 31008G12KT 9999 VCTS SCT015 BKN035CB BKN120 QNH2990INS TEMPO 1617/1620 VRB05KT 8000 -SHRA BKN015 OVC030 FM162100 34010KT 9999 BKN050 BKN250 QNH2992INS FM170200 35008KT 9999 SCT050 BKN250 QNH2997INS T27/1620Z T16/1710Z AMD 1640 FN20029
NOTAMs
Click for the latest NOTAMs
NOTAMs are issued by the DoD/FAA and will open in a separate window not controlled by AirNav.

 

 
 

Would you like to see your business listed on this page?

 If your business provides an interesting product or service to pilots, flight crews, aircraft, or users of the Blackwater Airfield, you should consider listing it here.  To start the listing process, click on the button below
 
Add a business
 

Other Pages about Blackwater Airfield

Update a link
 
Copyright © AirNav, LLC. All rights reserved. Privacy Policy  Contact